Time;durP1;ratioP1;P1;durP2;ratioP2;P2;SDS_P1;SDS_P2;PMS_P1;PMS_P2;Temp;Humidity;BMP_temperature;BMP_pressure;BME280_temperature;BME280_humidity;BME280_pressure;Samples;Min_cycle;Max_cycle;Signal;HPM_P1;HPM_P2
2023/01/01 00:01:10;;;;;;;18.98;9.25;;;;;;;;;;5072090;28;20056;-54
2023/01/01 00:03:36;;;;;;;12.95;8.05;;;;;;;;;;5070790;28;20032;-62
2023/01/01 00:06:09;;;;;;;18.77;8.73;;;;;;;;;;5068948;28;20056;-53
2023/01/01 00:08:36;;;;;;;18.48;8.90;;;;;;;;;;5071285;28;20025;-56
2023/01/01 00:11:06;;;;;;;14.88;6.78;;;;;;;;;;5072250;28;20107;-56
2023/01/01 00:13:32;;;;;;;14.13;6.72;;;;;;;;;;5071438;28;20036;-56
2023/01/01 00:16:13;;;;;;;18.42;8.07;;;;;;;;;;5069275;28;20086;-55
2023/01/01 00:18:38;;;;;;;15.55;6.68;;;;;;;;;;5061788;28;20033;-56
2023/01/01 00:21:12;;;;;;;16.17;7.03;;;;;;;;;;5066808;28;20098;-58
2023/01/01 00:23:38;;;;;;;18.75;6.97;;;;;;;;;;5068832;28;20142;-58
2023/01/01 00:26:12;;;;;;;12.77;6.43;;;;;;;;;;5065076;28;20025;-56
2023/01/01 00:28:38;;;;;;;11.80;5.32;;;;;;;;;;5069967;28;20029;-55
2023/01/01 00:31:18;;;;;;;15.80;6.45;;;;;;;;;;5067574;28;20029;-56
2023/01/01 00:33:45;;;;;;;11.50;5.68;;;;;;;;;;5067074;28;20056;-54
2023/01/01 00:36:15;;;;;;;15.18;6.72;;;;;;;;;;5070826;28;20039;-54
2023/01/01 00:38:42;;;;;;;14.30;7.13;;;;;;;;;;5067774;28;20536;-56
2023/01/01 00:41:08;;;;;;;16.35;6.75;;;;;;;;;;5069251;28;20483;-57
2023/01/01 00:43:34;;;;;;;13.32;6.80;;;;;;;;;;5066721;28;20028;-54
2023/01/01 00:46:00;;;;;;;22.20;8.35;;;;;;;;;;5067524;28;20044;-55
2023/01/01 00:48:25;;;;;;;13.02;6.80;;;;;;;;;;5068087;28;20044;-56
2023/01/01 00:50:51;;;;;;;16.98;8.80;;;;;;;;;;5068974;28;20029;-55
2023/01/01 00:53:18;;;;;;;20.23;9.93;;;;;;;;;;5070256;28;20043;-54
2023/01/01 00:55:44;;;;;;;20.75;10.63;;;;;;;;;;5070797;28;20029;-56
2023/01/01 00:58:09;;;;;;;24.08;11.05;;;;;;;;;;5053796;28;20055;-56
2023/01/01 01:00:35;;;;;;;23.80;10.95;;;;;;;;;;5077167;28;20036;-56
2023/01/01 01:03:01;;;;;;;21.00;11.52;;;;;;;;;;5069577;28;20139;-54
2023/01/01 01:05:26;;;;;;;20.70;10.38;;;;;;;;;;5065442;28;20103;-55
2023/01/01 01:07:52;;;;;;;23.35;12.30;;;;;;;;;;5061243;28;20439;-56
2023/01/01 01:10:20;;;;;;;27.58;13.48;;;;;;;;;;5063716;28;20032;-56
2023/01/01 01:12:45;;;;;;;28.00;13.73;;;;;;;;;;5074839;28;20083;-55
2023/01/01 01:15:10;;;;;;;27.05;14.73;;;;;;;;;;5071152;28;20032;-59
2023/01/01 01:17:36;;;;;;;23.77;13.57;;;;;;;;;;5073336;28;20496;-57
2023/01/01 01:20:03;;;;;;;32.65;15.02;;;;;;;;;;5071118;28;20028;-55
2023/01/01 01:22:28;;;;;;;30.40;15.55;;;;;;;;;;5060536;28;20033;-55
2023/01/01 01:24:54;;;;;;;27.02;13.80;;;;;;;;;;5060616;28;20029;-54
2023/01/01 01:27:20;;;;;;;27.10;13.85;;;;;;;;;;5074875;28;20028;-53
2023/01/01 01:29:45;;;;;;;27.27;14.05;;;;;;;;;;5064487;28;20371;-56
2023/01/01 01:32:11;;;;;;;28.48;13.93;;;;;;;;;;5069522;28;20119;-55
2023/01/01 01:34:37;;;;;;;16.30;9.43;;;;;;;;;;5067492;28;20052;-59
2023/01/01 01:37:03;;;;;;;18.15;10.63;;;;;;;;;;5062496;28;20060;-57
2023/01/01 01:39:28;;;;;;;19.80;10.63;;;;;;;;;;5069848;28;20037;-57
2023/01/01 01:41:54;;;;;;;19.35;10.80;;;;;;;;;;5059591;28;20081;-52
2023/01/01 01:44:52;;;;;;;22.95;12.20;;;;;;;;;;5077718;28;20033;-58
2023/01/01 01:47:41;;;;;;;22.13;12.02;;;;;;;;;;5077847;28;20526;-56
2023/01/01 01:50:15;;;;;;;25.15;13.48;;;;;;;;;;5076584;28;20123;-57
2023/01/01 01:52:52;;;;;;;26.55;13.65;;;;;;;;;;5075242;28;20060;-58
2023/01/01 01:55:18;;;;;;;23.88;12.68;;;;;;;;;;5062291;28;20035;-59
2023/01/01 01:57:43;;;;;;;19.35;9.73;;;;;;;;;;5058295;28;20052;-55
2023/01/01 02:00:09;;;;;;;22.45;12.02;;;;;;;;;;5071152;28;20039;-53
2023/01/01 02:03:08;;;;;;;20.55;11.60;;;;;;;;;;5067881;28;20099;-54
2023/01/01 02:05:34;;;;;;;25.13;10.98;;;;;;;;;;5079438;28;20032;-56
2023/01/01 02:08:02;;;;;;;19.35;10.00;;;;;;;;;;5072488;28;20024;-55
2023/01/01 02:10:28;;;;;;;17.35;9.60;;;;;;;;;;5070261;28;20035;-59
2023/01/01 02:12:53;;;;;;;17.50;8.63;;;;;;;;;;5056819;28;20115;-59
2023/01/01 02:15:22;;;;;;;16.10;9.30;;;;;;;;;;5072913;28;20033;-52
2023/01/01 02:18:00;;;;;;;14.25;6.97;;;;;;;;;;5067235;28;20036;-53
2023/01/01 02:20:35;;;;;;;14.43;7.97;;;;;;;;;;5073372;28;20037;-59
2023/01/01 02:23:27;;;;;;;14.57;6.93;;;;;;;;;;5057982;28;20396;-56
2023/01/01 02:26:03;;;;;;;18.67;8.55;;;;;;;;;;5068012;28;20037;-56
2023/01/01 02:28:50;;;;;;;17.10;8.50;;;;;;;;;;5059807;28;20103;-58
2023/01/01 02:31:23;;;;;;;21.90;7.72;;;;;;;;;;5060027;28;20499;-54
2023/01/01 02:33:50;;;;;;;13.68;7.28;;;;;;;;;;5071464;28;20044;-57
2023/01/01 02:36:18;;;;;;;14.82;8.38;;;;;;;;;;5072982;28;20024;-58
2023/01/01 02:38:47;;;;;;;13.88;7.82;;;;;;;;;;5067454;28;20544;-56
2023/01/01 02:41:23;;;;;;;14.35;6.55;;;;;;;;;;5059899;28;20048;-57
2023/01/01 02:43:50;;;;;;;12.73;6.90;;;;;;;;;;5070171;28;20200;-57
2023/01/01 02:46:15;;;;;;;10.18;5.93;;;;;;;;;;5061932;28;20039;-58
2023/01/01 02:48:52;;;;;;;12.98;6.80;;;;;;;;;;5064907;28;20028;-56
2023/01/01 02:51:38;;;;;;;10.95;6.25;;;;;;;;;;5065641;28;20028;-54
2023/01/01 02:54:30;;;;;;;11.43;6.22;;;;;;;;;;5066517;28;20024;-57
2023/01/01 02:57:24;;;;;;;13.85;5.25;;;;;;;;;;5027298;28;20036;-54
2023/01/01 03:00:49;;;;;;;9.18;4.43;;;;;;;;;;5054518;28;20040;-57
2023/01/01 03:03:27;;;;;;;8.43;3.72;;;;;;;;;;5053241;28;20036;-51
2023/01/01 03:08:51;;;;;;;8.02;3.30;;;;;;;;;;5079354;28;20047;-58
2023/01/01 03:11:21;;;;;;;9.43;2.85;;;;;;;;;;5060753;28;20424;-54
2023/01/01 03:13:53;;;;;;;5.00;1.90;;;;;;;;;;5062219;28;20377;-55
2023/01/01 03:16:30;;;;;;;7.05;2.40;;;;;;;;;;5069885;28;20412;-56
2023/01/01 03:19:10;;;;;;;3.50;1.50;;;;;;;;;;5054770;28;20069;-55
2023/01/01 03:21:55;;;;;;;7.93;2.70;;;;;;;;;;5052463;28;20428;-55
2023/01/01 03:24:33;;;;;;;4.30;1.70;;;;;;;;;;5053758;28;20473;-56
2023/01/01 03:27:04;;;;;;;6.80;1.83;;;;;;;;;;5062293;28;20029;-53
2023/01/01 03:29:32;;;;;;;;;;;;;;;;;;5061129;28;20107;-59
2023/01/01 03:32:00;;;;;;;5.22;2.05;;;;;;;;;;5058702;28;19913;-56
2023/01/01 03:34:34;;;;;;;4.95;1.80;;;;;;;;;;5054184;28;20029;-54
2023/01/01 03:37:06;;;;;;;7.03;1.80;;;;;;;;;;5072241;28;20028;-54
2023/01/01 03:39:37;;;;;;;4.60;1.95;;;;;;;;;;5070985;28;20322;-58
2023/01/01 03:42:20;;;;;;;;;;;;;;;;;;5070659;28;20030;-51
2023/01/01 03:44:51;;;;;;;4.50;1.77;;;;;;;;;;5071516;28;19931;-55
2023/01/01 03:47:17;;;;;;;5.25;1.80;;;;;;;;;;5067919;28;20044;-54
2023/01/01 03:49:43;;;;;;;4.80;1.70;;;;;;;;;;5054874;28;20036;-55
2023/01/01 03:52:19;;;;;;;2.63;1.58;;;;;;;;;;5067403;28;20047;-59
2023/01/01 03:55:18;;;;;;;6.18;1.58;;;;;;;;;;5066157;28;20032;-57
2023/01/01 03:57:52;;;;;;;5.50;1.60;;;;;;;;;;5052592;28;20051;-55
2023/01/01 04:00:22;;;;;;;6.50;1.80;;;;;;;;;;5058549;28;20028;-56
2023/01/01 04:02:55;;;;;;;3.97;1.80;;;;;;;;;;5066628;28;20056;-56
2023/01/01 04:05:21;;;;;;;3.38;1.50;;;;;;;;;;5065407;28;20032;-56
2023/01/01 04:07:48;;;;;;;3.78;1.60;;;;;;;;;;5056317;28;20032;-54
2023/01/01 04:10:17;;;;;;;5.95;1.60;;;;;;;;;;5069742;28;20036;-57
2023/01/01 04:12:54;;;;;;;5.82;1.90;;;;;;;;;;5065085;28;20400;-56
2023/01/01 04:15:24;;;;;;;1.73;1.30;;;;;;;;;;5059602;28;20392;-55
2023/01/01 04:17:50;;;;;;;4.63;1.52;;;;;;;;;;5069641;28;20035;-56
2023/01/01 04:20:16;;;;;;;7.75;1.58;;;;;;;;;;5069913;28;20106;-56
2023/01/01 04:22:42;;;;;;;3.00;1.50;;;;;;;;;;5057499;28;20113;-55
2023/01/01 04:25:08;;;;;;;5.68;1.55;;;;;;;;;;5076339;28;20114;-54
2023/01/01 04:27:34;;;;;;;4.88;1.50;;;;;;;;;;5069879;28;20043;-59
2023/01/01 04:29:59;;;;;;;5.38;1.58;;;;;;;;;;5076557;28;20373;-55
2023/01/01 04:32:25;;;;;;;6.53;1.60;;;;;;;;;;5055403;28;20441;-56
2023/01/01 04:34:50;;;;;;;3.13;1.30;;;;;;;;;;5067846;28;20043;-55
2023/01/01 04:37:15;;;;;;;4.93;1.45;;;;;;;;;;5062839;28;20524;-55
2023/01/01 04:39:41;;;;;;;2.60;1.60;;;;;;;;;;5064724;28;20461;-57
2023/01/01 04:42:07;;;;;;;5.68;1.85;;;;;;;;;;5054661;28;20033;-57
2023/01/01 04:44:32;;;;;;;3.53;1.30;;;;;;;;;;5054758;28;20057;-60
2023/01/01 04:46:58;;;;;;;4.32;1.50;;;;;;;;;;5052932;28;20048;-57
2023/01/01 04:49:23;;;;;;;3.75;1.70;;;;;;;;;;5053602;28;20028;-58
2023/01/01 04:51:49;;;;;;;5.72;1.63;;;;;;;;;;5066228;28;20037;-52
2023/01/01 04:54:14;;;;;;;6.95;1.50;;;;;;;;;;5068140;28;20033;-59
2023/01/01 04:56:40;;;;;;;4.70;1.77;;;;;;;;;;5054207;28;20453;-55
2023/01/01 04:59:05;;;;;;;8.10;1.60;;;;;;;;;;5063344;28;20040;-57
2023/01/01 05:01:31;;;;;;;7.18;1.45;;;;;;;;;;5044992;28;20044;-54
2023/01/01 05:03:58;;;;;;;5.85;1.67;;;;;;;;;;5054568;28;20293;-54
2023/01/01 05:06:24;;;;;;;5.38;1.60;;;;;;;;;;5065521;28;20098;-57
2023/01/01 05:08:55;;;;;;;4.80;1.70;;;;;;;;;;5069080;28;20248;-54
2023/01/01 05:11:21;;;;;;;;;;;;;;;;;;5067591;28;20111;-54
2023/01/01 05:13:49;;;;;;;7.07;2.17;;;;;;;;;;5064982;28;19916;-55
2023/01/01 05:16:17;;;;;;;4.18;1.90;;;;;;;;;;5061421;28;20032;-58
2023/01/01 05:18:43;;;;;;;3.92;1.52;;;;;;;;;;5066939;28;20037;-56
2023/01/01 05:21:13;;;;;;;5.47;1.70;;;;;;;;;;5054386;28;20033;-55
2023/01/01 05:23:38;;;;;;;4.10;1.58;;;;;;;;;;5068411;28;20094;-58
2023/01/01 05:26:19;;;;;;;5.85;1.92;;;;;;;;;;5053166;28;20041;-56
2023/01/01 05:28:46;;;;;;;6.70;2.00;;;;;;;;;;5065876;28;20032;-51
2023/01/01 05:31:14;;;;;;;3.83;1.55;;;;;;;;;;5068270;28;20048;-59
2023/01/01 05:33:40;;;;;;;5.32;1.88;;;;;;;;;;5056126;28;20587;-57
2023/01/01 05:36:07;;;;;;;11.02;2.10;;;;;;;;;;5070565;28;20036;-53
2023/01/01 05:38:33;;;;;;;5.35;1.60;;;;;;;;;;5054275;28;20420;-53
2023/01/01 05:40:59;;;;;;;5.93;2.13;;;;;;;;;;5062822;28;20089;-55
2023/01/01 05:43:24;;;;;;;10.48;1.88;;;;;;;;;;5070567;28;20024;-56
2023/01/01 05:46:01;;;;;;;5.47;1.60;;;;;;;;;;5058495;28;20029;-54
2023/01/01 05:48:27;;;;;;;4.05;1.83;;;;;;;;;;5062380;28;20067;-55
2023/01/01 05:50:52;;;;;;;4.93;1.60;;;;;;;;;;5068416;28;20412;-56
2023/01/01 05:53:18;;;;;;;3.58;1.52;;;;;;;;;;5071577;28;20028;-55
2023/01/01 05:55:43;;;;;;;3.17;1.58;;;;;;;;;;5072927;28;20105;-52
2023/01/01 05:58:09;;;;;;;6.00;1.67;;;;;;;;;;5066270;28;20045;-56
2023/01/01 06:00:34;;;;;;;6.70;1.83;;;;;;;;;;5057743;28;20106;-56
2023/01/01 06:02:59;;;;;;;3.50;1.50;;;;;;;;;;5065841;28;20028;-55
2023/01/01 06:05:25;;;;;;;6.22;1.65;;;;;;;;;;5069004;28;20040;-56
2023/01/01 06:07:50;;;;;;;6.28;1.60;;;;;;;;;;5063636;28;20040;-55
2023/01/01 06:10:16;;;;;;;4.28;1.50;;;;;;;;;;5065100;28;20141;-55
2023/01/01 06:12:41;;;;;;;4.15;1.50;;;;;;;;;;5071903;28;20028;-59
2023/01/01 06:15:07;;;;;;;6.68;1.70;;;;;;;;;;5065956;28;20200;-58
2023/01/01 06:17:33;;;;;;;3.05;1.30;;;;;;;;;;5068843;28;20577;-54
2023/01/01 06:19:58;;;;;;;3.72;1.48;;;;;;;;;;5054242;28;20108;-56
2023/01/01 06:22:23;;;;;;;2.75;1.45;;;;;;;;;;5065519;28;20044;-55
2023/01/01 06:24:49;;;;;;;5.25;1.50;;;;;;;;;;5068099;28;20039;-56
2023/01/01 06:27:14;;;;;;;6.07;1.75;;;;;;;;;;5058499;28;20024;-56
2023/01/01 06:29:40;;;;;;;3.90;1.42;;;;;;;;;;5072043;28;20115;-59
2023/01/01 06:32:05;;;;;;;4.70;1.90;;;;;;;;;;5071853;28;20040;-55
2023/01/01 06:34:30;;;;;;;3.30;1.30;;;;;;;;;;5073276;28;20033;-55
2023/01/01 06:36:56;;;;;;;3.30;1.50;;;;;;;;;;5070132;28;20127;-56
2023/01/01 06:39:21;;;;;;;3.22;1.45;;;;;;;;;;5072511;28;20040;-55
2023/01/01 06:41:46;;;;;;;6.88;1.70;;;;;;;;;;5067664;28;20718;-56
2023/01/01 06:44:12;;;;;;;4.85;1.65;;;;;;;;;;5066648;28;20028;-57
2023/01/01 06:46:37;;;;;;;4.65;1.60;;;;;;;;;;5072383;28;20389;-51
2023/01/01 06:49:06;;;;;;;4.40;1.45;;;;;;;;;;5062833;28;20025;-55
2023/01/01 06:51:37;;;;;;;4.88;1.50;;;;;;;;;;5062906;28;20048;-57
2023/01/01 06:54:03;;;;;;;;;;;;;;;;;;5067054;28;20505;-56
2023/01/01 06:56:29;;;;;;;3.03;1.80;;;;;;;;;;5071198;28;19952;-57
2023/01/01 06:58:54;;;;;;;2.95;1.48;;;;;;;;;;5068485;28;20044;-59
2023/01/01 07:01:22;;;;;;;4.55;1.50;;;;;;;;;;5065267;28;20405;-55
2023/01/01 07:03:52;;;;;;;5.85;1.83;;;;;;;;;;5066185;28;20058;-56
2023/01/01 07:06:17;;;;;;;4.60;1.52;;;;;;;;;;5072077;28;20084;-53
2023/01/01 07:08:43;;;;;;;4.47;1.60;;;;;;;;;;5071938;28;20390;-57
2023/01/01 07:11:08;;;;;;;4.38;1.60;;;;;;;;;;5057419;28;20032;-51
2023/01/01 07:13:33;;;;;;;5.70;1.52;;;;;;;;;;5055139;28;20112;-57
2023/01/01 07:15:59;;;;;;;2.83;1.30;;;;;;;;;;5072607;28;20453;-53
2023/01/01 07:18:25;;;;;;;6.22;3.00;;;;;;;;;;5073390;28;20025;-52
2023/01/01 07:20:52;;;;;;;4.22;1.63;;;;;;;;;;5072430;28;20047;-54
2023/01/01 07:23:18;;;;;;;4.72;1.55;;;;;;;;;;5073018;28;20060;-56
2023/01/01 07:25:44;;;;;;;5.05;1.75;;;;;;;;;;5072582;28;20055;-58
2023/01/01 07:28:09;;;;;;;4.47;1.40;;;;;;;;;;5072944;28;20111;-57
2023/01/01 07:30:34;;;;;;;6.35;1.60;;;;;;;;;;5073163;28;20055;-55
2023/01/01 07:33:00;;;;;;;5.82;1.85;;;;;;;;;;5072317;28;20382;-57
2023/01/01 07:35:25;;;;;;;4.15;1.52;;;;;;;;;;5072919;28;20466;-55
2023/01/01 07:37:50;;;;;;;3.38;1.30;;;;;;;;;;5071118;28;20039;-55
2023/01/01 07:40:16;;;;;;;3.35;1.50;;;;;;;;;;5086888;28;20070;-56
2023/01/01 07:42:41;;;;;;;6.03;1.77;;;;;;;;;;5084022;28;20024;-57
2023/01/01 07:45:10;;;;;;;3.92;1.60;;;;;;;;;;5072131;28;20124;-56
2023/01/01 07:47:35;;;;;;;8.55;2.10;;;;;;;;;;5072683;28;20021;-58
2023/01/01 07:50:01;;;;;;;4.38;1.77;;;;;;;;;;5071922;28;20082;-60
2023/01/01 07:52:26;;;;;;;7.50;2.20;;;;;;;;;;5066611;28;20146;-60
2023/01/01 07:54:52;;;;;;;5.57;1.67;;;;;;;;;;5064842;28;20488;-60
2023/01/01 07:57:17;;;;;;;3.92;1.67;;;;;;;;;;5072572;28;20368;-59
2023/01/01 07:59:42;;;;;;;5.18;2.17;;;;;;;;;;5070820;28;20036;-61
2023/01/01 08:02:11;;;;;;;4.18;1.70;;;;;;;;;;5071801;28;20032;-61
2023/01/01 08:04:37;;;;;;;3.88;1.80;;;;;;;;;;5072470;28;20051;-61
2023/01/01 08:07:02;;;;;;;5.20;1.55;;;;;;;;;;5071371;28;20393;-60
2023/01/01 08:09:28;;;;;;;5.00;1.85;;;;;;;;;;5072712;28;20036;-60
2023/01/01 08:11:53;;;;;;;4.28;1.98;;;;;;;;;;5071474;28;20431;-57
2023/01/01 08:14:19;;;;;;;5.60;2.03;;;;;;;;;;5069534;28;20032;-60
2023/01/01 08:16:44;;;;;;;3.88;1.67;;;;;;;;;;5071898;28;20488;-60
2023/01/01 08:19:10;;;;;;;4.43;1.65;;;;;;;;;;5071482;28;20032;-60
2023/01/01 08:21:35;;;;;;;2.28;1.42;;;;;;;;;;5072021;28;20040;-59
2023/01/01 08:24:00;;;;;;;6.13;2.00;;;;;;;;;;5071327;28;20111;-61
2023/01/01 08:26:32;;;;;;;4.93;2.00;;;;;;;;;;5071977;28;20512;-61
2023/01/01 08:28:58;;;;;;;5.80;1.95;;;;;;;;;;5071602;28;20054;-61
2023/01/01 08:31:24;;;;;;;3.28;1.33;;;;;;;;;;5071494;28;20029;-60
2023/01/01 08:33:50;;;;;;;7.38;1.73;;;;;;;;;;5071720;28;20036;-61
2023/01/01 08:36:15;;;;;;;6.22;1.90;;;;;;;;;;5072135;28;20397;-60
2023/01/01 08:38:42;;;;;;;5.05;2.08;;;;;;;;;;5071936;28;20487;-61
2023/01/01 08:41:08;;;;;;;4.50;1.80;;;;;;;;;;5075048;28;20098;-61
2023/01/01 08:43:33;;;;;;;4.78;1.75;;;;;;;;;;5072603;28;20037;-62
2023/01/01 08:45:59;;;;;;;6.47;1.80;;;;;;;;;;5085752;28;20502;-61
2023/01/01 08:48:24;;;;;;;5.88;2.42;;;;;;;;;;5069645;28;20031;-61
2023/01/01 08:50:53;;;;;;;6.53;1.90;;;;;;;;;;5070854;28;20075;-62
2023/01/01 08:53:19;;;;;;;7.60;2.28;;;;;;;;;;5071748;28;20090;-60
2023/01/01 08:55:44;;;;;;;6.85;2.13;;;;;;;;;;5071435;28;20028;-61
2023/01/01 08:58:10;;;;;;;6.80;2.08;;;;;;;;;;5079718;28;20288;-59
2023/01/01 09:00:35;;;;;;;6.60;1.88;;;;;;;;;;5063741;28;20033;-58
2023/01/01 09:03:00;;;;;;;5.93;1.88;;;;;;;;;;5070746;28;20032;-58
2023/01/01 09:05:26;;;;;;;5.65;1.90;;;;;;;;;;5071116;28;20055;-57
2023/01/01 09:07:51;;;;;;;5.00;1.90;;;;;;;;;;5052853;28;20099;-58
2023/01/01 09:10:17;;;;;;;3.80;1.52;;;;;;;;;;5071819;28;20110;-56
2023/01/01 09:12:42;;;;;;;5.22;1.95;;;;;;;;;;5071763;28;20443;-56
2023/01/01 09:15:14;;;;;;;6.47;1.65;;;;;;;;;;5070702;28;20047;-57
2023/01/01 09:17:40;;;;;;;4.97;1.77;;;;;;;;;;5071361;28;20097;-58
2023/01/01 09:20:05;;;;;;;6.68;2.97;;;;;;;;;;5055879;28;20044;-53
2023/01/01 09:22:32;;;;;;;4.95;1.80;;;;;;;;;;5066660;28;20540;-56
2023/01/01 09:24:58;;;;;;;3.45;1.75;;;;;;;;;;5070392;28;20165;-52
2023/01/01 09:27:23;;;;;;;9.27;2.20;;;;;;;;;;5074278;28;20488;-53
2023/01/01 09:29:48;;;;;;;5.63;1.70;;;;;;;;;;5075674;28;20032;-54
2023/01/01 09:32:14;;;;;;;6.53;2.20;;;;;;;;;;5074228;28;20439;-53
2023/01/01 09:34:39;;;;;;;6.90;2.00;;;;;;;;;;5075440;28;20190;-57
2023/01/01 09:37:05;;;;;;;6.15;2.13;;;;;;;;;;5074518;28;20020;-52
2023/01/01 09:39:30;;;;;;;9.75;2.22;;;;;;;;;;5074392;28;20031;-55
2023/01/01 09:42:11;;;;;;;5.88;1.92;;;;;;;;;;5074177;28;20520;-54
2023/01/01 09:45:14;;;;;;;6.97;2.22;;;;;;;;;;5080514;28;20107;-53
2023/01/01 09:47:43;;;;;;;8.20;1.75;;;;;;;;;;5091278;28;20034;-54
2023/01/01 09:50:15;;;;;;;3.58;1.70;;;;;;;;;;5092380;28;20480;-53
2023/01/01 09:53:00;;;;;;;7.13;2.00;;;;;;;;;;5094145;28;20118;-57
2023/01/01 09:55:47;;;;;;;5.40;1.77;;;;;;;;;;5079131;28;20045;-56
2023/01/01 09:58:13;;;;;;;6.68;2.47;;;;;;;;;;5084590;28;20378;-53
2023/01/01 10:00:43;;;;;;;8.00;2.00;;;;;;;;;;5095188;28;20028;-59
2023/01/01 10:03:39;;;;;;;5.25;1.90;;;;;;;;;;5090311;28;20491;-55
2023/01/01 10:06:14;;;;;;;4.32;1.80;;;;;;;;;;5072766;28;20025;-53
2023/01/01 10:08:47;;;;;;;6.93;1.98;;;;;;;;;;5074372;28;20036;-55
2023/01/01 10:11:23;;;;;;;6.80;1.83;;;;;;;;;;5073687;28;20036;-55
2023/01/01 10:13:52;;;;;;;4.90;1.80;;;;;;;;;;5058857;28;20476;-57
2023/01/01 10:16:29;;;;;;;5.22;1.58;;;;;;;;;;5073949;28;20111;-56
2023/01/01 10:18:59;;;;;;;5.82;1.90;;;;;;;;;;5074277;28;20044;-58
2023/01/01 10:21:43;;;;;;;6.13;1.80;;;;;;;;;;5074486;28;20032;-58
2023/01/01 10:24:26;;;;;;;5.70;1.80;;;;;;;;;;5061564;28;20029;-57
2023/01/01 10:26:54;;;;;;;6.00;1.98;;;;;;;;;;5054531;28;20051;-58
2023/01/01 10:29:44;;;;;;;5.13;1.90;;;;;;;;;;5059746;28;20032;-57
2023/01/01 10:32:33;;;;;;;7.35;1.60;;;;;;;;;;5072021;28;20040;-55
2023/01/01 10:35:00;;;;;;;4.38;1.63;;;;;;;;;;5073531;28;20033;-56
2023/01/01 10:37:32;;;;;;;6.47;1.95;;;;;;;;;;5073171;28;20024;-57
2023/01/01 10:40:01;;;;;;;5.25;2.15;;;;;;;;;;5072984;28;20028;-56
2023/01/01 10:42:27;;;;;;;5.03;1.95;;;;;;;;;;5072062;28;20032;-57
2023/01/01 10:44:52;;;;;;;8.38;2.08;;;;;;;;;;5061187;28;20024;-52
2023/01/01 10:47:28;;;;;;;8.25;1.60;;;;;;;;;;5072275;28;20060;-59
2023/01/01 10:49:59;;;;;;;7.65;2.10;;;;;;;;;;5074277;28;20090;-55
2023/01/01 10:52:33;;;;;;;6.63;1.90;;;;;;;;;;5073916;28;20104;-52
2023/01/01 10:54:59;;;;;;;4.43;1.58;;;;;;;;;;5073105;28;20532;-55
2023/01/01 10:57:32;;;;;;;4.10;1.80;;;;;;;;;;5072258;28;20151;-57
2023/01/01 11:00:18;;;;;;;6.82;2.20;;;;;;;;;;5071750;28;20078;-58
2023/01/01 11:02:43;;;;;;;6.55;1.98;;;;;;;;;;5073892;28;20032;-53
2023/01/01 11:05:17;;;;;;;4.45;1.60;;;;;;;;;;5072635;28;20098;-54
2023/01/01 11:07:43;;;;;;;3.88;1.60;;;;;;;;;;5072526;28;20085;-53
2023/01/01 11:10:35;;;;;;;7.95;1.98;;;;;;;;;;5072797;28;20040;-56
2023/01/01 11:13:00;;;;;;;5.85;2.03;;;;;;;;;;5067352;28;20040;-54
2023/01/01 11:15:39;;;;;;;4.72;1.80;;;;;;;;;;5073584;28;20034;-56
2023/01/01 11:18:14;;;;;;;7.45;1.90;;;;;;;;;;5071657;28;20071;-57
2023/01/01 11:20:40;;;;;;;4.20;1.60;;;;;;;;;;5069986;28;20044;-55
2023/01/01 11:23:31;;;;;;;6.70;2.10;;;;;;;;;;5070954;28;20059;-55
2023/01/01 11:26:00;;;;;;;4.47;1.60;;;;;;;;;;5061693;28;20041;-59
2023/01/01 11:28:25;;;;;;;5.25;1.92;;;;;;;;;;5073252;28;20032;-56
2023/01/01 11:31:14;;;;;;;5.30;1.70;;;;;;;;;;5080864;28;20036;-56
2023/01/01 11:33:47;;;;;;;4.10;1.50;;;;;;;;;;5085771;28;20024;-58
2023/01/01 11:36:20;;;;;;;4.95;1.55;;;;;;;;;;5072268;28;20070;-57
2023/01/01 11:39:02;;;;;;;2.90;1.40;;;;;;;;;;5080704;28;20067;-56
2023/01/01 11:41:27;;;;;;;4.82;1.90;;;;;;;;;;5072711;28;20036;-57
2023/01/01 11:43:52;;;;;;;3.95;1.60;;;;;;;;;;5071179;28;20522;-59
2023/01/01 11:46:23;;;;;;;7.00;1.88;;;;;;;;;;5075238;28;20481;-57
2023/01/01 11:48:49;;;;;;;8.07;2.55;;;;;;;;;;5052898;28;20033;-56
2023/01/01 11:51:31;;;;;;;20.40;1.70;;;;;;;;;;5066536;28;20107;-58
2023/01/01 11:54:22;;;;;;;5.82;2.00;;;;;;;;;;5085422;28;20036;-58
2023/01/01 11:56:53;;;;;;;5.10;1.85;;;;;;;;;;5079941;28;20032;-56
2023/01/01 11:59:22;;;;;;;7.18;1.70;;;;;;;;;;5070899;28;20062;-55
2023/01/01 12:01:54;;;;;;;5.07;1.85;;;;;;;;;;5070652;28;20386;-57
2023/01/01 12:04:31;;;;;;;6.13;1.88;;;;;;;;;;5070433;28;20037;-54
2023/01/01 12:07:08;;;;;;;4.85;1.70;;;;;;;;;;5064727;28;20032;-59
2023/01/01 12:09:44;;;;;;;7.22;2.17;;;;;;;;;;5072255;28;20038;-57
2023/01/01 12:12:27;;;;;;;6.60;2.10;;;;;;;;;;5080374;28;20468;-56
2023/01/01 12:14:59;;;;;;;7.53;1.90;;;;;;;;;;5052485;28;20025;-56
2023/01/01 12:17:37;;;;;;;9.77;2.20;;;;;;;;;;5051677;28;20040;-56
2023/01/01 12:20:24;;;;;;;4.05;1.75;;;;;;;;;;5067260;28;20029;-59
2023/01/01 12:22:50;;;;;;;6.80;2.10;;;;;;;;;;5070905;28;20063;-57
2023/01/01 12:25:18;;;;;;;6.15;1.70;;;;;;;;;;5070628;28;20060;-54
2023/01/01 12:28:29;;;;;;;5.68;2.10;;;;;;;;;;5072150;28;20036;-56
2023/01/01 12:31:10;;;;;;;5.72;1.83;;;;;;;;;;5065064;28;20035;-54
2023/01/01 12:34:01;;;;;;;10.65;1.83;;;;;;;;;;5071730;28;20029;-57
2023/01/01 12:36:36;;;;;;;7.05;1.77;;;;;;;;;;5058441;28;20036;-57
2023/01/01 12:39:29;;;;;;;7.03;1.90;;;;;;;;;;5074125;28;20062;-57
2023/01/01 12:42:00;;;;;;;6.45;1.80;;;;;;;;;;5092127;28;20055;-57
2023/01/01 12:44:47;;;;;;;4.93;1.70;;;;;;;;;;5083032;28;20029;-58
2023/01/01 12:47:34;;;;;;;7.55;2.13;;;;;;;;;;5082737;28;20070;-56
2023/01/01 12:50:25;;;;;;;7.90;2.00;;;;;;;;;;5077789;28;20107;-56
2023/01/01 12:53:25;;;;;;;7.25;1.52;;;;;;;;;;5092032;28;20035;-57
2023/01/01 12:56:12;;;;;;;7.65;2.08;;;;;;;;;;5090787;28;20027;-55
2023/01/01 12:58:44;;;;;;;5.30;1.70;;;;;;;;;;5090305;28;20048;-52
2023/01/01 13:01:26;;;;;;;6.93;1.83;;;;;;;;;;5075880;28;20131;-56
2023/01/01 13:04:01;;;;;;;5.68;1.70;;;;;;;;;;5073808;28;20035;-57
2023/01/01 13:06:32;;;;;;;7.28;2.20;;;;;;;;;;5091068;28;20067;-56
2023/01/01 13:09:11;;;;;;;6.10;1.60;;;;;;;;;;5073291;28;20074;-54
2023/01/01 13:11:38;;;;;;;7.50;1.60;;;;;;;;;;5068367;28;20391;-59
2023/01/01 13:14:04;;;;;;;5.25;1.60;;;;;;;;;;5090177;28;20032;-58
2023/01/01 13:16:40;;;;;;;6.57;2.00;;;;;;;;;;5090720;28;20488;-54
2023/01/01 13:19:31;;;;;;;5.50;1.85;;;;;;;;;;5087437;28;20043;-58
2023/01/01 13:21:56;;;;;;;9.07;2.13;;;;;;;;;;5075022;28;20467;-57
2023/01/01 13:24:24;;;;;;;4.70;2.00;;;;;;;;;;5069386;28;20063;-52
2023/01/01 13:26:50;;;;;;;7.45;2.08;;;;;;;;;;5086515;28;20461;-54
2023/01/01 13:29:42;;;;;;;7.85;3.03;;;;;;;;;;5082394;28;20031;-58
2023/01/01 13:32:10;;;;;;;4.28;1.70;;;;;;;;;;5028265;28;20151;-56
2023/01/01 13:34:37;;;;;;;5.82;1.83;;;;;;;;;;5028320;28;20045;-57
2023/01/01 13:37:08;;;;;;;7.68;1.90;;;;;;;;;;5029164;28;20107;-57
2023/01/01 13:40:23;;;;;;;7.20;2.45;;;;;;;;;;5037819;28;20064;-54
2023/01/01 13:43:16;;;;;;;6.65;1.80;;;;;;;;;;5033121;28;20483;-57
2023/01/01 13:45:51;;;;;;;3.78;1.80;;;;;;;;;;5015578;28;20045;-57
2023/01/01 13:48:19;;;;;;;4.97;1.90;;;;;;;;;;5032643;28;20513;-55
2023/01/01 13:51:18;;;;;;;9.77;2.10;;;;;;;;;;5028150;28;20038;-56
2023/01/01 13:54:21;;;;;;;8.05;2.20;;;;;;;;;;5027009;28;20037;-67
2023/01/01 13:56:53;;;;;;;11.40;2.40;;;;;;;;;;5027701;28;20053;-58
2023/01/01 13:59:30;;;;;;;7.28;2.30;;;;;;;;;;5025948;28;20099;-57
2023/01/01 14:02:11;;;;;;;11.88;2.20;;;;;;;;;;5027694;28;20052;-57
2023/01/01 14:04:48;;;;;;;9.90;2.25;;;;;;;;;;5011394;28;20040;-57
2023/01/01 14:07:38;;;;;;;6.50;1.95;;;;;;;;;;5028043;28;20038;-58
2023/01/01 14:10:32;;;;;;;7.05;2.20;;;;;;;;;;5064790;28;20078;-57
2023/01/01 14:13:09;;;;;;;7.63;2.05;;;;;;;;;;5071162;28;20060;-58
2023/01/01 14:15:55;;;;;;;6.32;1.65;;;;;;;;;;5055662;28;20127;-56
2023/01/01 14:18:38;;;;;;;5.60;2.03;;;;;;;;;;5072871;28;20477;-56
2023/01/01 14:21:09;;;;;;;7.50;1.83;;;;;;;;;;5074727;28;20024;-57
2023/01/01 14:23:40;;;;;;;5.72;2.00;;;;;;;;;;5064026;28;20025;-55
2023/01/01 14:26:10;;;;;;;5.22;1.90;;;;;;;;;;5072309;28;20071;-60
2023/01/01 14:28:37;;;;;;;4.30;2.00;;;;;;;;;;5074464;28;20024;-57
2023/01/01 14:31:10;;;;;;;6.53;2.10;;;;;;;;;;5074287;28;20037;-55
2023/01/01 14:33:36;;;;;;;7.40;2.42;;;;;;;;;;5084455;28;20035;-57
2023/01/01 14:36:03;;;;;;;6.82;2.03;;;;;;;;;;5076993;28;20032;-58
2023/01/01 14:38:34;;;;;;;7.00;2.00;;;;;;;;;;5072940;28;20565;-56
2023/01/01 14:41:13;;;;;;;5.55;2.40;;;;;;;;;;5072015;28;20058;-56
2023/01/01 14:43:41;;;;;;;5.70;2.10;;;;;;;;;;5072333;28;20040;-52
2023/01/01 14:46:12;;;;;;;7.50;2.30;;;;;;;;;;5070386;28;20036;-56
2023/01/01 14:48:43;;;;;;;6.03;1.85;;;;;;;;;;5074052;28;20115;-57
2023/01/01 14:51:12;;;;;;;7.35;2.35;;;;;;;;;;5075097;28;20043;-59
2023/01/01 14:53:38;;;;;;;6.80;2.20;;;;;;;;;;5073583;28;20063;-56
2023/01/01 14:56:05;;;;;;;8.48;2.25;;;;;;;;;;5071449;28;20462;-55
2023/01/01 14:58:32;;;;;;;8.48;2.30;;;;;;;;;;5071271;28;20199;-57
2023/01/01 15:01:20;;;;;;;10.23;2.30;;;;;;;;;;5072325;28;20025;-56
2023/01/01 15:04:04;;;;;;;4.57;1.70;;;;;;;;;;5072623;28;20032;-57
2023/01/01 15:06:30;;;;;;;9.38;2.13;;;;;;;;;;5051596;28;20226;-58
2023/01/01 15:08:56;;;;;;;8.60;1.90;;;;;;;;;;5053393;28;20025;-57